createdAt,value
2022-10-01T00:02:24.769Z,100.00
2022-10-01T00:04:53.719Z,100.00
2022-10-01T00:07:24.392Z,100.00
2022-10-01T00:09:53.976Z,100.00
2022-10-01T00:12:22.404Z,100.00
2022-10-01T00:14:59.600Z,100.00
2022-10-01T00:17:32.201Z,100.00
2022-10-01T00:20:14.145Z,100.00
2022-10-01T00:23:23.058Z,100.00
2022-10-01T00:25:53.840Z,100.00
2022-10-01T00:28:22.531Z,100.00
2022-10-01T00:30:51.229Z,100.00
2022-10-01T00:33:21.221Z,100.00
2022-10-01T00:35:49.743Z,100.00
2022-10-01T00:38:19.429Z,100.00
2022-10-01T00:40:48.045Z,100.00
2022-10-01T00:43:25.365Z,100.00
2022-10-01T00:45:56.745Z,100.00
2022-10-01T00:48:28.777Z,100.00
2022-10-01T00:50:58.225Z,100.00
2022-10-01T00:53:27.469Z,100.00
2022-10-01T00:56:01.092Z,100.00
2022-10-01T00:58:39.701Z,100.00
2022-10-01T01:01:09.772Z,100.00
2022-10-01T01:03:41.892Z,100.00
2022-10-01T01:06:10.466Z,100.00
2022-10-01T01:08:41.358Z,100.00
2022-10-01T01:11:18.667Z,100.00
2022-10-01T01:13:59.972Z,100.00
2022-10-01T01:16:35.950Z,100.00
2022-10-01T01:19:18.833Z,100.00
2022-10-01T01:21:54.170Z,100.00
2022-10-01T01:24:48.757Z,100.00
2022-10-01T01:27:39.572Z,100.00
2022-10-01T01:30:20.741Z,100.00
2022-10-01T01:33:05.016Z,100.00
2022-10-01T01:35:44.275Z,100.00
2022-10-01T01:38:17.146Z,100.00
2022-10-01T01:41:17.455Z,100.00
2022-10-01T01:43:54.668Z,100.00
2022-10-01T01:46:31.766Z,100.00
2022-10-01T01:49:09.046Z,100.00
2022-10-01T01:51:42.626Z,100.00
2022-10-01T01:54:11.371Z,100.00
2022-10-01T01:56:42.960Z,100.00
2022-10-01T01:59:12.165Z,100.00
2022-10-01T02:01:44.342Z,100.00
2022-10-01T02:04:22.207Z,100.00
2022-10-01T02:07:09.744Z,100.00
2022-10-01T02:09:52.131Z,100.00
2022-10-01T02:12:37.442Z,100.00
2022-10-01T02:15:17.654Z,100.00
2022-10-01T02:18:00.822Z,100.00
2022-10-01T02:20:37.808Z,100.00
2022-10-01T02:23:10.539Z,100.00
2022-10-01T02:25:51.724Z,100.00
2022-10-01T02:28:24.280Z,100.00
2022-10-01T02:30:56.167Z,100.00
2022-10-01T02:33:31.101Z,100.00
2022-10-01T02:36:02.564Z,100.00
2022-10-01T02:38:34.791Z,100.00
2022-10-01T02:41:08.538Z,100.00
2022-10-01T02:43:53.918Z,100.00
2022-10-01T02:46:33.131Z,100.00
2022-10-01T02:49:04.525Z,100.00
2022-10-01T02:51:40.711Z,100.00
2022-10-01T02:54:21.989Z,100.00
2022-10-01T02:57:16.169Z,100.00
2022-10-01T02:59:47.328Z,100.00
2022-10-01T03:02:17.645Z,100.00
2022-10-01T03:04:50.523Z,100.00
2022-10-01T03:07:20.004Z,100.00
2022-10-01T03:09:49.671Z,100.00
2022-10-01T03:12:20.838Z,100.00
2022-10-01T03:14:49.706Z,100.00
2022-10-01T03:17:24.413Z,100.00
2022-10-01T03:19:54.877Z,100.00
2022-10-01T03:22:25.119Z,100.00
2022-10-01T03:24:54.609Z,100.00
2022-10-01T03:27:25.656Z,100.00
2022-10-01T03:29:55.455Z,100.00
2022-10-01T03:32:25.981Z,100.00
2022-10-01T03:34:56.015Z,100.00
2022-10-01T03:37:24.519Z,100.00
2022-10-01T03:39:54.330Z,100.00
2022-10-01T03:42:25.335Z,100.00
2022-10-01T03:44:53.844Z,100.00
2022-10-01T03:47:24.532Z,100.00
2022-10-01T03:49:56.884Z,100.00
2022-10-01T03:52:35.517Z,100.00
2022-10-01T03:55:03.988Z,100.00
2022-10-01T03:57:35.610Z,100.00
2022-10-01T04:00:10.829Z,100.00
2022-10-01T04:02:41.496Z,100.00
2022-10-01T04:05:12.526Z,100.00
2022-10-01T04:07:43.054Z,100.00
2022-10-01T04:10:13.993Z,100.00
2022-10-01T04:12:44.334Z,100.00
2022-10-01T04:15:17.228Z,100.00
2022-10-01T04:17:48.808Z,100.00
2022-10-01T04:20:25.369Z,100.00
2022-10-01T04:22:54.020Z,100.00
2022-10-01T04:25:22.620Z,100.00
2022-10-01T04:28:01.052Z,100.00
2022-10-01T04:30:32.182Z,100.00
2022-10-01T04:33:00.898Z,100.00
2022-10-01T04:35:31.596Z,100.00
2022-10-01T04:38:02.165Z,100.00
2022-10-01T04:40:34.337Z,100.00
2022-10-01T04:43:05.117Z,100.00
2022-10-01T04:45:34.180Z,100.00
2022-10-01T04:48:02.904Z,100.00
2022-10-01T04:50:34.193Z,100.00
2022-10-01T04:53:02.655Z,100.00
2022-10-01T04:55:32.110Z,100.00
2022-10-01T04:58:01.545Z,100.00
2022-10-01T05:00:30.134Z,100.00
2022-10-01T05:02:59.578Z,100.00
2022-10-01T05:05:29.661Z,100.00
2022-10-01T05:07:59.677Z,100.00
2022-10-01T05:10:29.342Z,100.00
2022-10-01T05:12:58.314Z,100.00
2022-10-01T05:15:35.975Z,100.00
2022-10-01T05:18:05.292Z,100.00
2022-10-01T05:20:36.139Z,100.00
2022-10-01T05:23:06.155Z,100.00
2022-10-01T05:25:34.849Z,100.00
2022-10-01T05:28:06.487Z,100.00
2022-10-01T05:30:35.933Z,100.00
2022-10-01T05:33:06.661Z,100.00
2022-10-01T05:35:35.924Z,100.00
2022-10-01T05:38:07.297Z,100.00
2022-10-01T05:40:40.789Z,100.00
2022-10-01T05:43:18.877Z,100.00
2022-10-01T05:45:48.240Z,100.00
2022-10-01T05:48:17.494Z,100.00
2022-10-01T05:50:46.771Z,100.00
2022-10-01T05:53:17.093Z,100.00
2022-10-01T05:55:45.613Z,100.00
2022-10-01T05:58:15.631Z,100.00
2022-10-01T06:00:45.610Z,100.00
2022-10-01T06:03:15.327Z,100.00
2022-10-01T06:05:46.549Z,100.00
2022-10-01T06:08:16.832Z,100.00
2022-10-01T06:10:45.179Z,100.00
2022-10-01T06:13:16.772Z,100.00
2022-10-01T06:16:19.434Z,100.00
2022-10-01T06:18:49.776Z,100.00
2022-10-01T06:21:24.810Z,100.00
2022-10-01T06:23:59.189Z,100.00
2022-10-01T06:26:28.663Z,100.00
2022-10-01T06:28:57.692Z,100.00
2022-10-01T06:31:26.440Z,100.00
2022-10-01T06:33:57.764Z,100.00
2022-10-01T06:36:26.160Z,100.00
2022-10-01T06:38:58.247Z,100.00
2022-10-01T06:41:26.765Z,100.00
2022-10-01T06:43:55.137Z,100.00
2022-10-01T06:46:23.626Z,100.00
2022-10-01T06:48:53.492Z,100.00
2022-10-01T06:51:43.039Z,100.00
2022-10-01T06:54:13.144Z,100.00
2022-10-01T06:56:41.963Z,100.00
2022-10-01T06:59:11.380Z,100.00
2022-10-01T07:01:41.395Z,100.00
2022-10-01T07:04:11.679Z,100.00
2022-10-01T07:06:42.406Z,100.00
2022-10-01T07:09:20.359Z,100.00
2022-10-01T07:11:50.112Z,100.00
2022-10-01T07:14:18.505Z,100.00
2022-10-01T07:16:47.194Z,100.00
2022-10-01T07:19:15.766Z,100.00
2022-10-01T07:21:44.260Z,100.00
2022-10-01T07:24:17.342Z,100.00
2022-10-01T07:26:51.177Z,100.00
2022-10-01T07:29:19.656Z,100.00
2022-10-01T07:31:48.428Z,100.00
2022-10-01T07:34:18.047Z,100.00
2022-10-01T07:36:47.855Z,100.00
2022-10-01T07:39:16.492Z,100.00
2022-10-01T07:41:45.116Z,100.00
2022-10-01T07:44:16.698Z,100.00
2022-10-01T07:46:45.564Z,100.00
2022-10-01T07:49:15.581Z,100.00
2022-10-01T07:51:44.966Z,100.00
2022-10-01T07:54:13.878Z,100.00
2022-10-01T07:56:43.762Z,100.00
2022-10-01T07:59:12.776Z,100.00
2022-10-01T08:01:46.150Z,100.00
2022-10-01T08:04:32.883Z,100.00
2022-10-01T08:07:04.232Z,100.00
2022-10-01T08:09:33.698Z,100.00
2022-10-01T08:12:05.340Z,100.00
2022-10-01T08:14:33.803Z,100.00
2022-10-01T08:17:05.787Z,100.00
2022-10-01T08:19:36.483Z,100.00
2022-10-01T08:22:05.147Z,100.00
2022-10-01T08:24:41.484Z,100.00
2022-10-01T08:27:11.117Z,100.00
2022-10-01T08:29:43.608Z,100.00
2022-10-01T08:32:14.983Z,100.00
2022-10-01T08:34:44.768Z,100.00
2022-10-01T08:37:15.976Z,100.00
2022-10-01T08:39:44.869Z,100.00
2022-10-01T08:42:34.080Z,100.00
2022-10-01T08:45:06.165Z,100.00
2022-10-01T08:47:41.392Z,100.00
2022-10-01T08:50:19.906Z,100.00
2022-10-01T08:52:54.529Z,100.00
2022-10-01T08:55:28.325Z,100.00
2022-10-01T08:58:07.107Z,100.00
2022-10-01T09:00:42.337Z,100.00
2022-10-01T09:03:16.295Z,100.00
2022-10-01T09:06:05.580Z,100.00
2022-10-01T09:08:47.740Z,100.00
2022-10-01T09:11:34.589Z,100.00
2022-10-01T09:14:27.730Z,100.00
2022-10-01T09:17:05.800Z,100.00
2022-10-01T09:20:00.664Z,100.00
2022-10-01T09:22:40.121Z,100.00
2022-10-01T09:25:23.038Z,100.00
2022-10-01T09:28:14.988Z,100.00
2022-10-01T09:30:46.620Z,100.00
2022-10-01T09:33:18.725Z,100.00
2022-10-01T09:35:55.124Z,100.00
2022-10-01T09:38:32.675Z,100.00
2022-10-01T09:41:04.391Z,100.00
2022-10-01T09:43:39.429Z,100.00
2022-10-01T09:46:13.749Z,100.00
2022-10-01T09:48:47.303Z,100.00
2022-10-01T09:51:20.493Z,100.00
2022-10-01T09:54:03.588Z,100.00
2022-10-01T09:56:44.100Z,100.00
2022-10-01T09:59:28.485Z,100.00
2022-10-01T10:02:00.269Z,100.00
2022-10-01T10:04:29.207Z,100.00
2022-10-01T10:07:04.902Z,100.00
2022-10-01T10:09:39.455Z,100.00
2022-10-01T10:12:28.557Z,100.00
2022-10-01T10:15:10.748Z,100.00
2022-10-01T10:17:44.410Z,100.00
2022-10-01T10:20:26.689Z,100.00
2022-10-01T10:23:20.636Z,100.00
2022-10-01T10:25:57.450Z,100.00
2022-10-01T10:28:39.006Z,100.00
2022-10-01T10:31:15.612Z,100.00
2022-10-01T10:33:51.349Z,100.00
2022-10-01T10:36:27.189Z,100.00
2022-10-01T10:39:01.262Z,100.00
2022-10-01T10:41:32.744Z,100.00
2022-10-01T10:44:18.967Z,100.00
2022-10-01T10:46:54.077Z,100.00
2022-10-01T10:49:30.301Z,100.00
2022-10-01T10:52:01.078Z,100.00
2022-10-01T10:54:33.957Z,100.00
2022-10-01T10:57:05.550Z,100.00
2022-10-01T10:59:35.490Z,100.00
2022-10-01T11:02:07.626Z,100.00
2022-10-01T11:04:43.250Z,100.00
2022-10-01T11:07:15.042Z,100.00
2022-10-01T11:10:13.477Z,100.00
2022-10-01T11:12:56.606Z,100.00
2022-10-01T11:15:43.404Z,100.00
2022-10-01T11:18:36.565Z,100.00
2022-10-01T11:21:25.606Z,100.00
2022-10-01T11:24:12.283Z,100.00
2022-10-01T11:26:54.235Z,100.00
2022-10-01T11:29:42.695Z,100.00
2022-10-01T11:32:23.752Z,100.00
2022-10-01T11:35:18.821Z,100.00
2022-10-01T11:38:05.249Z,100.00
2022-10-01T11:40:39.579Z,100.00
2022-10-01T11:43:19.809Z,100.00
2022-10-01T11:45:52.517Z,100.00
2022-10-01T11:48:30.709Z,100.00
2022-10-01T11:51:05.171Z,100.00
2022-10-01T11:53:40.246Z,100.00
2022-10-01T11:56:32.603Z,100.00
2022-10-01T11:59:07.711Z,100.00
2022-10-01T12:01:44.014Z,100.00
2022-10-01T12:04:26.509Z,100.00
2022-10-01T12:07:01.425Z,100.00
2022-10-01T12:09:41.338Z,100.00
2022-10-01T12:12:17.509Z,100.00
2022-10-01T12:14:54.528Z,100.00
2022-10-01T12:17:28.221Z,100.00
2022-10-01T12:20:01.084Z,100.00
2022-10-01T12:22:33.099Z,100.00
2022-10-01T12:25:01.515Z,100.00
2022-10-01T12:27:41.342Z,100.00
2022-10-01T12:30:14.822Z,100.00
2022-10-01T12:32:57.228Z,100.00
2022-10-01T12:35:39.084Z,100.00
2022-10-01T12:38:20.927Z,100.00
2022-10-01T12:40:57.017Z,100.00
2022-10-01T12:44:00.872Z,100.00
2022-10-01T12:46:40.496Z,100.00
2022-10-01T12:49:22.678Z,100.00
2022-10-01T12:52:01.055Z,100.00
2022-10-01T12:54:57.888Z,100.00
2022-10-01T12:57:39.530Z,100.00
2022-10-01T13:00:14.934Z,100.00
2022-10-01T13:03:08.365Z,100.00
2022-10-01T13:05:45.857Z,100.00
2022-10-01T13:08:36.856Z,100.00
2022-10-01T13:11:20.828Z,100.00
2022-10-01T13:13:53.137Z,100.00
2022-10-01T13:16:31.988Z,100.00
2022-10-01T13:19:10.787Z,100.00
2022-10-01T13:21:54.669Z,100.00
2022-10-01T13:24:29.993Z,100.00
2022-10-01T13:27:05.064Z,100.00
2022-10-01T13:29:45.449Z,100.00
2022-10-01T13:32:29.497Z,100.00
2022-10-01T13:35:01.627Z,100.00
2022-10-01T13:37:39.352Z,100.00
2022-10-01T13:40:24.308Z,100.00
2022-10-01T13:42:57.941Z,100.00
2022-10-01T13:45:34.481Z,100.00
2022-10-01T13:48:17.318Z,100.00
2022-10-01T13:51:03.094Z,100.00
2022-10-01T13:53:35.736Z,100.00
2022-10-01T13:56:05.870Z,100.00
2022-10-01T13:58:42.209Z,100.00
2022-10-01T14:01:33.660Z,100.00
2022-10-01T14:04:16.665Z,100.00
2022-10-01T14:06:53.564Z,100.00
2022-10-01T14:09:25.891Z,100.00
2022-10-01T14:12:19.291Z,100.00
2022-10-01T14:15:11.630Z,100.00
2022-10-01T14:17:43.791Z,100.00
2022-10-01T14:20:22.879Z,100.00
2022-10-01T14:23:10.938Z,100.00
2022-10-01T14:25:53.975Z,100.00
2022-10-01T14:28:50.266Z,100.00
2022-10-01T14:31:33.279Z,100.00
2022-10-01T14:34:55.451Z,100.00
2022-10-01T14:37:25.457Z,100.00
2022-10-01T14:40:18.342Z,100.00
2022-10-01T14:42:58.649Z,100.00
2022-10-01T14:45:28.208Z,100.00
2022-10-01T14:48:03.610Z,100.00
2022-10-01T14:50:55.420Z,100.00
2022-10-01T14:53:26.069Z,100.00
2022-10-01T14:56:12.711Z,100.00
2022-10-01T14:58:47.038Z,100.00
2022-10-01T15:01:22.737Z,100.00
2022-10-01T15:03:52.474Z,100.00
2022-10-01T15:06:26.751Z,100.00
2022-10-01T15:09:05.485Z,100.00
2022-10-01T15:11:43.536Z,100.00
2022-10-01T15:14:19.268Z,100.00
2022-10-01T15:17:01.338Z,100.00
2022-10-01T15:19:33.497Z,100.00
2022-10-01T15:22:05.864Z,100.00
2022-10-01T15:24:44.836Z,100.00
2022-10-01T15:27:20.872Z,100.00
2022-10-01T15:29:56.710Z,100.00
2022-10-01T15:32:28.354Z,100.00
2022-10-01T15:34:59.749Z,100.00
2022-10-01T15:37:33.496Z,100.00
2022-10-01T15:40:04.147Z,100.00
2022-10-01T15:42:37.978Z,100.00
2022-10-01T15:45:27.055Z,100.00
2022-10-01T15:47:58.675Z,100.00
2022-10-01T15:50:37.747Z,99.18
2022-10-01T15:53:10.711Z,96.35
2022-10-01T15:55:48.947Z,93.69
2022-10-01T15:58:30.233Z,95.91
2022-10-01T16:01:04.529Z,100.00
2022-10-01T16:03:39.031Z,100.00
2022-10-01T16:06:20.321Z,100.00
2022-10-01T16:09:00.470Z,99.06
2022-10-01T16:11:32.281Z,95.74
2022-10-01T16:14:22.564Z,100.00
2022-10-01T16:16:51.857Z,100.00
2022-10-01T16:19:24.761Z,100.00
2022-10-01T16:22:15.975Z,98.17
2022-10-01T16:24:47.071Z,99.40
2022-10-01T16:27:19.123Z,94.24
2022-10-01T16:30:05.402Z,91.69
2022-10-01T16:32:35.334Z,93.58
2022-10-01T16:35:19.138Z,91.63
2022-10-01T16:37:50.549Z,89.41
2022-10-01T16:40:19.669Z,87.65
2022-10-01T16:42:50.692Z,91.71
2022-10-01T16:45:24.420Z,98.13
2022-10-01T16:47:53.867Z,100.00
2022-10-01T16:50:23.846Z,100.00
2022-10-01T16:52:54.370Z,100.00
2022-10-01T16:55:27.627Z,100.00
2022-10-01T16:57:56.066Z,100.00
2022-10-01T17:00:28.095Z,100.00
2022-10-01T17:02:57.496Z,100.00
2022-10-01T17:05:27.658Z,100.00
2022-10-01T17:08:00.190Z,100.00
2022-10-01T17:10:32.137Z,100.00
2022-10-01T17:13:02.197Z,100.00
2022-10-01T17:15:34.650Z,100.00
2022-10-01T17:18:03.407Z,100.00
2022-10-01T17:20:32.962Z,100.00
2022-10-01T17:23:01.330Z,100.00
2022-10-01T17:25:34.430Z,100.00
2022-10-01T17:28:04.142Z,100.00
2022-10-01T17:30:34.991Z,100.00
2022-10-01T17:33:04.350Z,100.00
2022-10-01T17:35:32.664Z,100.00
2022-10-01T17:38:01.223Z,100.00
2022-10-01T17:40:29.922Z,100.00
2022-10-01T17:42:59.569Z,100.00
2022-10-01T17:45:28.352Z,100.00
2022-10-01T17:48:02.042Z,100.00
2022-10-01T17:50:31.114Z,100.00
2022-10-01T17:53:01.022Z,100.00
2022-10-01T17:55:29.901Z,100.00
2022-10-01T17:58:00.545Z,100.00
2022-10-01T18:00:29.295Z,100.00
2022-10-01T18:03:01.583Z,100.00
2022-10-01T18:05:30.488Z,100.00
2022-10-01T18:08:00.577Z,100.00
2022-10-01T18:10:29.997Z,100.00
2022-10-01T18:12:59.113Z,100.00
2022-10-01T18:15:27.536Z,100.00
2022-10-01T18:18:58.676Z,100.00
2022-10-01T18:20:46.317Z,100.00
2022-10-01T18:23:14.961Z,100.00
2022-10-01T18:25:43.415Z,100.00
2022-10-01T18:28:12.301Z,100.00
2022-10-01T18:30:40.887Z,100.00
2022-10-01T18:33:12.980Z,100.00
2022-10-01T18:35:44.513Z,100.00
2022-10-01T18:38:22.028Z,100.00
2022-10-01T18:40:58.312Z,100.00
2022-10-01T18:43:28.051Z,100.00
2022-10-01T18:46:11.757Z,100.00
2022-10-01T18:49:05.250Z,100.00
2022-10-01T18:51:52.167Z,100.00
2022-10-01T18:54:39.820Z,100.00
2022-10-01T18:57:20.765Z,100.00
2022-10-01T19:00:06.961Z,100.00
2022-10-01T19:02:53.522Z,100.00
2022-10-01T19:05:49.803Z,100.00
2022-10-01T19:08:29.276Z,100.00
2022-10-01T19:11:38.709Z,100.00
2022-10-01T19:14:27.117Z,100.00
2022-10-01T19:17:03.587Z,100.00
2022-10-01T19:19:44.419Z,100.00
2022-10-01T19:22:23.887Z,100.00
2022-10-01T19:25:10.973Z,100.00
2022-10-01T19:27:53.884Z,100.00
2022-10-01T19:30:22.813Z,100.00
2022-10-01T19:32:59.644Z,100.00
2022-10-01T19:35:32.886Z,100.00
2022-10-01T19:38:07.253Z,100.00
2022-10-01T19:40:41.172Z,100.00
2022-10-01T19:43:19.958Z,100.00
2022-10-01T19:45:53.436Z,100.00
2022-10-01T19:48:27.506Z,100.00
2022-10-01T19:51:06.224Z,100.00
2022-10-01T19:53:38.469Z,100.00
2022-10-01T19:56:07.682Z,100.00
2022-10-01T19:58:37.908Z,100.00
2022-10-01T20:01:06.811Z,100.00
2022-10-01T20:03:40.349Z,100.00
2022-10-01T20:06:22.630Z,100.00
2022-10-01T20:08:53.970Z,100.00
2022-10-01T20:11:28.902Z,100.00
2022-10-01T20:14:34.265Z,100.00
2022-10-01T20:17:07.784Z,100.00
2022-10-01T20:19:42.964Z,100.00
2022-10-01T20:22:23.080Z,100.00
2022-10-01T20:25:00.362Z,100.00
2022-10-01T20:27:40.750Z,100.00
2022-10-01T20:30:16.875Z,100.00
2022-10-01T20:33:01.073Z,100.00
2022-10-01T20:35:34.456Z,100.00
2022-10-01T20:38:11.398Z,100.00
2022-10-01T20:40:49.901Z,100.00
2022-10-01T20:43:24.125Z,100.00
2022-10-01T20:45:57.313Z,100.00
2022-10-01T20:48:29.126Z,100.00
2022-10-01T20:51:17.520Z,100.00
2022-10-01T20:53:55.626Z,100.00
2022-10-01T20:56:30.163Z,100.00
2022-10-01T20:59:05.629Z,100.00
2022-10-01T21:01:41.620Z,100.00
2022-10-01T21:04:18.516Z,100.00
2022-10-01T21:06:49.718Z,100.00
2022-10-01T21:09:25.253Z,100.00
2022-10-01T21:11:59.942Z,100.00
2022-10-01T21:14:37.981Z,100.00
2022-10-01T21:17:25.811Z,100.00
2022-10-01T21:20:34.460Z,100.00
2022-10-01T21:23:14.455Z,100.00
2022-10-01T21:25:57.348Z,100.00
2022-10-01T21:28:43.648Z,100.00
2022-10-01T21:31:26.463Z,100.00
2022-10-01T21:34:04.348Z,100.00
2022-10-01T21:36:39.416Z,100.00
2022-10-01T21:39:13.352Z,100.00
2022-10-01T21:41:58.523Z,100.00
2022-10-01T21:45:06.897Z,100.00
2022-10-01T21:47:54.584Z,100.00
2022-10-01T21:50:36.361Z,100.00
2022-10-01T21:53:23.339Z,100.00
2022-10-01T21:56:28.000Z,100.00
2022-10-01T21:59:10.114Z,100.00
2022-10-01T22:01:55.960Z,100.00
2022-10-01T22:04:33.605Z,100.00
2022-10-01T22:07:10.670Z,100.00
2022-10-01T22:09:44.337Z,100.00
2022-10-01T22:12:15.174Z,100.00
2022-10-01T22:14:46.705Z,100.00
2022-10-01T22:17:19.146Z,100.00
2022-10-01T22:19:51.611Z,100.00
2022-10-01T22:22:26.368Z,100.00
2022-10-01T22:24:56.322Z,100.00
2022-10-01T22:27:29.226Z,100.00
2022-10-01T22:30:09.414Z,100.00
2022-10-01T22:32:45.100Z,100.00
2022-10-01T22:35:24.733Z,100.00
2022-10-01T22:37:58.828Z,100.00
2022-10-01T22:40:31.615Z,100.00
2022-10-01T22:43:06.805Z,100.00
2022-10-01T22:45:48.681Z,100.00
2022-10-01T22:48:35.680Z,100.00
2022-10-01T22:51:18.281Z,100.00
2022-10-01T22:54:11.036Z,100.00
2022-10-01T22:56:47.457Z,100.00
2022-10-01T22:59:24.081Z,100.00
2022-10-01T23:02:04.214Z,100.00
2022-10-01T23:04:43.272Z,100.00
2022-10-01T23:07:20.002Z,100.00
2022-10-01T23:09:58.693Z,100.00
2022-10-01T23:12:41.469Z,100.00
2022-10-01T23:15:23.985Z,100.00
2022-10-01T23:18:00.873Z,100.00
2022-10-01T23:20:33.689Z,100.00
2022-10-01T23:23:35.376Z,100.00
2022-10-01T23:26:21.132Z,100.00
2022-10-01T23:29:04.345Z,100.00
2022-10-01T23:31:40.024Z,100.00
2022-10-01T23:34:25.904Z,100.00
2022-10-01T23:37:08.989Z,100.00
2022-10-01T23:39:50.184Z,100.00
2022-10-01T23:42:32.036Z,100.00
2022-10-01T23:45:16.438Z,100.00
2022-10-01T23:47:54.614Z,100.00
2022-10-01T23:50:32.164Z,100.00
2022-10-01T23:53:12.943Z,100.00
2022-10-01T23:56:06.518Z,100.00
2022-10-01T23:58:43.809Z,100.00
